sensor_id;sensor_type;location;lat;lon;timestamp;temperature;humidity
46416;DHT22;32620;51.704;7.822;2023-09-30T00:00:00;11.70;99.90
46416;DHT22;32620;51.704;7.822;2023-09-30T00:02:26;11.70;99.90
46416;DHT22;32620;51.704;7.822;2023-09-30T00:04:53;11.60;99.90
46416;DHT22;32620;51.704;7.822;2023-09-30T00:07:18;11.60;99.90
46416;DHT22;32620;51.704;7.822;2023-09-30T00:09:44;11.70;99.90
46416;DHT22;32620;51.704;7.822;2023-09-30T00:12:10;11.70;99.90
46416;DHT22;32620;51.704;7.822;2023-09-30T00:14:35;11.70;99.90
46416;DHT22;32620;51.704;7.822;2023-09-30T00:17:03;11.70;99.90
46416;DHT22;32620;51.704;7.822;2023-09-30T00:19:28;11.70;99.90
46416;DHT22;32620;51.704;7.822;2023-09-30T00:21:54;11.70;99.90
46416;DHT22;32620;51.704;7.822;2023-09-30T00:24:19;11.70;99.90
46416;DHT22;32620;51.704;7.822;2023-09-30T00:26:45;11.60;99.90
46416;DHT22;32620;51.704;7.822;2023-09-30T00:29:11;11.60;99.90
46416;DHT22;32620;51.704;7.822;2023-09-30T00:31:37;11.60;99.90
46416;DHT22;32620;51.704;7.822;2023-09-30T00:34:02;11.60;99.90
46416;DHT22;32620;51.704;7.822;2023-09-30T00:36:28;11.50;99.90
46416;DHT22;32620;51.704;7.822;2023-09-30T00:38:54;11.50;99.90
46416;DHT22;32620;51.704;7.822;2023-09-30T00:41:19;11.50;99.90
46416;DHT22;32620;51.704;7.822;2023-09-30T00:43:46;11.50;99.90
46416;DHT22;32620;51.704;7.822;2023-09-30T00:46:27;11.50;99.90
46416;DHT22;32620;51.704;7.822;2023-09-30T00:48:55;11.50;99.90
46416;DHT22;32620;51.704;7.822;2023-09-30T00:51:21;11.50;99.90
46416;DHT22;32620;51.704;7.822;2023-09-30T00:53:49;11.50;99.90
46416;DHT22;32620;51.704;7.822;2023-09-30T00:56:16;11.50;99.90
46416;DHT22;32620;51.704;7.822;2023-09-30T00:58:43;11.50;99.90
46416;DHT22;32620;51.704;7.822;2023-09-30T01:01:10;11.40;99.90
46416;DHT22;32620;51.704;7.822;2023-09-30T01:03:37;11.40;99.90
46416;DHT22;32620;51.704;7.822;2023-09-30T01:06:02;11.50;99.90
46416;DHT22;32620;51.704;7.822;2023-09-30T01:08:28;11.50;99.90
46416;DHT22;32620;51.704;7.822;2023-09-30T01:10:54;11.50;99.90
46416;DHT22;32620;51.704;7.822;2023-09-30T01:13:20;11.50;99.90
46416;DHT22;32620;51.704;7.822;2023-09-30T01:15:46;11.60;99.90
46416;DHT22;32620;51.704;7.822;2023-09-30T01:18:12;11.60;99.90
46416;DHT22;32620;51.704;7.822;2023-09-30T01:20:38;11.60;99.90
46416;DHT22;32620;51.704;7.822;2023-09-30T01:23:04;11.60;99.90
46416;DHT22;32620;51.704;7.822;2023-09-30T01:25:30;11.60;99.90
46416;DHT22;32620;51.704;7.822;2023-09-30T01:27:55;11.60;99.90
46416;DHT22;32620;51.704;7.822;2023-09-30T01:30:23;11.60;99.90
46416;DHT22;32620;51.704;7.822;2023-09-30T01:32:49;11.60;99.90
46416;DHT22;32620;51.704;7.822;2023-09-30T01:35:14;11.60;99.90
46416;DHT22;32620;51.704;7.822;2023-09-30T01:37:40;11.60;99.90
46416;DHT22;32620;51.704;7.822;2023-09-30T01:40:06;11.60;99.90
46416;DHT22;32620;51.704;7.822;2023-09-30T01:42:33;11.60;99.90
46416;DHT22;32620;51.704;7.822;2023-09-30T01:44:59;11.60;99.90
46416;DHT22;32620;51.704;7.822;2023-09-30T01:47:24;11.50;99.90
46416;DHT22;32620;51.704;7.822;2023-09-30T01:49:50;11.60;99.90
46416;DHT22;32620;51.704;7.822;2023-09-30T01:52:15;11.60;99.90
46416;DHT22;32620;51.704;7.822;2023-09-30T01:54:41;11.60;99.90
46416;DHT22;32620;51.704;7.822;2023-09-30T01:57:06;11.60;99.90
46416;DHT22;32620;51.704;7.822;2023-09-30T01:59:32;11.60;99.90
46416;DHT22;32620;51.704;7.822;2023-09-30T02:01:58;11.70;99.90
46416;DHT22;32620;51.704;7.822;2023-09-30T02:04:23;11.70;99.90
46416;DHT22;32620;51.704;7.822;2023-09-30T02:06:49;11.70;99.90
46416;DHT22;32620;51.704;7.822;2023-09-30T02:09:14;11.70;99.90
46416;DHT22;32620;51.704;7.822;2023-09-30T02:11:40;11.70;99.90
46416;DHT22;32620;51.704;7.822;2023-09-30T02:14:07;11.70;99.90
46416;DHT22;32620;51.704;7.822;2023-09-30T02:16:33;11.70;99.90
46416;DHT22;32620;51.704;7.822;2023-09-30T02:18:58;11.80;99.90
46416;DHT22;32620;51.704;7.822;2023-09-30T02:21:24;11.90;99.90
46416;DHT22;32620;51.704;7.822;2023-09-30T02:23:50;11.90;99.90
46416;DHT22;32620;51.704;7.822;2023-09-30T02:26:20;12.00;99.90
46416;DHT22;32620;51.704;7.822;2023-09-30T02:28:46;11.90;99.90
46416;DHT22;32620;51.704;7.822;2023-09-30T02:31:12;11.90;99.90
46416;DHT22;32620;51.704;7.822;2023-09-30T02:33:38;11.80;99.90
46416;DHT22;32620;51.704;7.822;2023-09-30T02:36:07;11.80;99.90
46416;DHT22;32620;51.704;7.822;2023-09-30T02:38:33;11.80;99.90
46416;DHT22;32620;51.704;7.822;2023-09-30T02:40:58;11.80;99.90
46416;DHT22;32620;51.704;7.822;2023-09-30T02:43:24;11.70;99.90
46416;DHT22;32620;51.704;7.822;2023-09-30T02:45:49;11.70;99.90
46416;DHT22;32620;51.704;7.822;2023-09-30T02:48:15;11.70;99.90
46416;DHT22;32620;51.704;7.822;2023-09-30T02:50:42;11.70;99.90
46416;DHT22;32620;51.704;7.822;2023-09-30T02:53:10;11.70;99.90
46416;DHT22;32620;51.704;7.822;2023-09-30T02:55:36;11.70;99.90
46416;DHT22;32620;51.704;7.822;2023-09-30T02:58:02;11.70;99.90
46416;DHT22;32620;51.704;7.822;2023-09-30T03:00:27;11.70;99.90
46416;DHT22;32620;51.704;7.822;2023-09-30T03:02:59;11.60;99.90
46416;DHT22;32620;51.704;7.822;2023-09-30T03:05:25;11.60;99.90
46416;DHT22;32620;51.704;7.822;2023-09-30T03:07:52;11.50;99.90
46416;DHT22;32620;51.704;7.822;2023-09-30T03:10:18;11.50;99.90
46416;DHT22;32620;51.704;7.822;2023-09-30T03:12:50;11.50;99.90
46416;DHT22;32620;51.704;7.822;2023-09-30T03:15:16;11.50;99.90
46416;DHT22;32620;51.704;7.822;2023-09-30T03:17:42;11.50;99.90
46416;DHT22;32620;51.704;7.822;2023-09-30T03:20:09;11.40;99.90
46416;DHT22;32620;51.704;7.822;2023-09-30T03:22:39;11.40;99.90
46416;DHT22;32620;51.704;7.822;2023-09-30T03:25:06;11.30;99.90
46416;DHT22;32620;51.704;7.822;2023-09-30T03:27:33;11.30;99.90
46416;DHT22;32620;51.704;7.822;2023-09-30T03:29:59;11.20;99.90
46416;DHT22;32620;51.704;7.822;2023-09-30T03:32:26;11.20;99.90
46416;DHT22;32620;51.704;7.822;2023-09-30T03:34:52;11.20;99.90
46416;DHT22;32620;51.704;7.822;2023-09-30T03:37:18;11.10;99.90
46416;DHT22;32620;51.704;7.822;2023-09-30T03:39:43;11.10;99.90
46416;DHT22;32620;51.704;7.822;2023-09-30T03:42:09;11.10;99.90
46416;DHT22;32620;51.704;7.822;2023-09-30T03:44:37;11.10;99.90
46416;DHT22;32620;51.704;7.822;2023-09-30T03:47:04;11.10;99.90
46416;DHT22;32620;51.704;7.822;2023-09-30T03:49:30;11.10;99.90
46416;DHT22;32620;51.704;7.822;2023-09-30T03:51:55;11.10;99.90
46416;DHT22;32620;51.704;7.822;2023-09-30T03:54:21;11.10;99.90
46416;DHT22;32620;51.704;7.822;2023-09-30T03:56:47;11.10;99.90
46416;DHT22;32620;51.704;7.822;2023-09-30T03:59:13;11.10;99.90
46416;DHT22;32620;51.704;7.822;2023-09-30T04:01:38;11.00;99.90
46416;DHT22;32620;51.704;7.822;2023-09-30T04:04:06;11.10;99.90
46416;DHT22;32620;51.704;7.822;2023-09-30T04:06:32;11.10;99.90
46416;DHT22;32620;51.704;7.822;2023-09-30T04:08:58;11.00;99.90
46416;DHT22;32620;51.704;7.822;2023-09-30T04:11:24;11.00;99.90
46416;DHT22;32620;51.704;7.822;2023-09-30T04:13:50;11.00;99.90
46416;DHT22;32620;51.704;7.822;2023-09-30T04:16:16;11.00;99.90
46416;DHT22;32620;51.704;7.822;2023-09-30T04:18:44;11.00;99.90
46416;DHT22;32620;51.704;7.822;2023-09-30T04:21:09;11.00;99.90
46416;DHT22;32620;51.704;7.822;2023-09-30T04:23:35;11.00;99.90
46416;DHT22;32620;51.704;7.822;2023-09-30T04:26:02;11.00;99.90
46416;DHT22;32620;51.704;7.822;2023-09-30T04:28:28;10.90;99.90
46416;DHT22;32620;51.704;7.822;2023-09-30T04:30:54;10.90;99.90
46416;DHT22;32620;51.704;7.822;2023-09-30T04:33:19;10.90;99.90
46416;DHT22;32620;51.704;7.822;2023-09-30T04:35:45;10.90;99.90
46416;DHT22;32620;51.704;7.822;2023-09-30T04:38:11;10.90;99.90
46416;DHT22;32620;51.704;7.822;2023-09-30T04:40:37;11.00;99.90
46416;DHT22;32620;51.704;7.822;2023-09-30T04:43:03;10.90;99.90
46416;DHT22;32620;51.704;7.822;2023-09-30T04:45:28;10.90;99.90
46416;DHT22;32620;51.704;7.822;2023-09-30T04:47:54;10.80;99.90
46416;DHT22;32620;51.704;7.822;2023-09-30T04:50:23;10.80;99.90
46416;DHT22;32620;51.704;7.822;2023-09-30T04:52:50;10.70;99.90
46416;DHT22;32620;51.704;7.822;2023-09-30T04:55:16;10.70;99.90
46416;DHT22;32620;51.704;7.822;2023-09-30T04:57:43;10.70;99.90
46416;DHT22;32620;51.704;7.822;2023-09-30T05:00:12;10.70;99.90
46416;DHT22;32620;51.704;7.822;2023-09-30T05:02:38;10.70;99.90
46416;DHT22;32620;51.704;7.822;2023-09-30T05:05:04;10.70;99.90
46416;DHT22;32620;51.704;7.822;2023-09-30T05:07:32;10.80;99.90
46416;DHT22;32620;51.704;7.822;2023-09-30T05:09:57;10.70;99.90
46416;DHT22;32620;51.704;7.822;2023-09-30T05:12:23;10.70;99.90
46416;DHT22;32620;51.704;7.822;2023-09-30T05:14:49;10.70;99.90
46416;DHT22;32620;51.704;7.822;2023-09-30T05:17:14;10.70;99.90
46416;DHT22;32620;51.704;7.822;2023-09-30T05:19:41;10.70;99.90
46416;DHT22;32620;51.704;7.822;2023-09-30T05:22:06;10.70;99.90
46416;DHT22;32620;51.704;7.822;2023-09-30T05:24:32;10.70;99.90
46416;DHT22;32620;51.704;7.822;2023-09-30T05:26:57;10.70;99.90
46416;DHT22;32620;51.704;7.822;2023-09-30T05:29:23;10.80;99.90
46416;DHT22;32620;51.704;7.822;2023-09-30T05:31:49;10.80;99.90
46416;DHT22;32620;51.704;7.822;2023-09-30T05:34:14;10.80;99.90
46416;DHT22;32620;51.704;7.822;2023-09-30T05:36:40;10.80;99.90
46416;DHT22;32620;51.704;7.822;2023-09-30T05:39:05;10.80;99.90
46416;DHT22;32620;51.704;7.822;2023-09-30T05:41:31;10.80;99.90
46416;DHT22;32620;51.704;7.822;2023-09-30T05:43:57;10.80;99.90
46416;DHT22;32620;51.704;7.822;2023-09-30T05:46:24;10.80;99.90
46416;DHT22;32620;51.704;7.822;2023-09-30T05:48:49;10.80;99.90
46416;DHT22;32620;51.704;7.822;2023-09-30T05:51:15;10.80;99.90
46416;DHT22;32620;51.704;7.822;2023-09-30T05:53:41;10.90;99.90
46416;DHT22;32620;51.704;7.822;2023-09-30T05:56:07;10.90;99.90
46416;DHT22;32620;51.704;7.822;2023-09-30T05:58:33;11.00;99.90
46416;DHT22;32620;51.704;7.822;2023-09-30T06:00:59;11.00;99.90
46416;DHT22;32620;51.704;7.822;2023-09-30T06:03:26;11.10;99.90
46416;DHT22;32620;51.704;7.822;2023-09-30T06:05:54;11.10;99.90
46416;DHT22;32620;51.704;7.822;2023-09-30T06:08:21;11.20;99.90
46416;DHT22;32620;51.704;7.822;2023-09-30T06:10:46;11.30;99.90
46416;DHT22;32620;51.704;7.822;2023-09-30T06:13:12;11.40;99.90
46416;DHT22;32620;51.704;7.822;2023-09-30T06:15:39;11.60;99.90
46416;DHT22;32620;51.704;7.822;2023-09-30T06:18:06;11.70;99.90
46416;DHT22;32620;51.704;7.822;2023-09-30T06:20:32;11.90;99.90
46416;DHT22;32620;51.704;7.822;2023-09-30T06:22:59;12.20;99.90
46416;DHT22;32620;51.704;7.822;2023-09-30T06:25:26;13.00;99.90
46416;DHT22;32620;51.704;7.822;2023-09-30T06:27:53;13.90;99.90
46416;DHT22;32620;51.704;7.822;2023-09-30T06:30:20;14.70;99.90
46416;DHT22;32620;51.704;7.822;2023-09-30T06:32:46;15.00;99.90
46416;DHT22;32620;51.704;7.822;2023-09-30T06:35:12;15.50;99.90
46416;DHT22;32620;51.704;7.822;2023-09-30T06:37:39;16.30;99.90
46416;DHT22;32620;51.704;7.822;2023-09-30T06:40:06;16.70;99.90
46416;DHT22;32620;51.704;7.822;2023-09-30T06:42:33;17.10;99.90
46416;DHT22;32620;51.704;7.822;2023-09-30T06:44:59;17.10;99.90
46416;DHT22;32620;51.704;7.822;2023-09-30T06:47:24;17.80;99.90
46416;DHT22;32620;51.704;7.822;2023-09-30T06:49:50;18.40;99.90
46416;DHT22;32620;51.704;7.822;2023-09-30T06:52:16;19.00;51.30
46416;DHT22;32620;51.704;7.822;2023-09-30T06:54:41;19.30;1.00
46416;DHT22;32620;51.704;7.822;2023-09-30T06:57:07;19.20;1.00
46416;DHT22;32620;51.704;7.822;2023-09-30T06:59:33;19.30;1.00
46416;DHT22;32620;51.704;7.822;2023-09-30T07:01:59;19.40;1.00
46416;DHT22;32620;51.704;7.822;2023-09-30T07:04:24;19.90;99.90
46416;DHT22;32620;51.704;7.822;2023-09-30T07:06:52;19.80;99.90
46416;DHT22;32620;51.704;7.822;2023-09-30T07:09:18;19.40;99.90
46416;DHT22;32620;51.704;7.822;2023-09-30T07:11:45;19.30;99.90
46416;DHT22;32620;51.704;7.822;2023-09-30T07:14:11;18.70;99.90
46416;DHT22;32620;51.704;7.822;2023-09-30T07:16:36;18.50;99.90
46416;DHT22;32620;51.704;7.822;2023-09-30T07:19:02;18.20;1.00
46416;DHT22;32620;51.704;7.822;2023-09-30T07:21:28;18.40;1.00
46416;DHT22;32620;51.704;7.822;2023-09-30T07:23:54;18.00;1.00
46416;DHT22;32620;51.704;7.822;2023-09-30T07:26:24;18.40;1.00
46416;DHT22;32620;51.704;7.822;2023-09-30T07:28:49;18.50;1.00
46416;DHT22;32620;51.704;7.822;2023-09-30T07:31:15;18.40;99.90
46416;DHT22;32620;51.704;7.822;2023-09-30T07:33:40;18.40;99.90
46416;DHT22;32620;51.704;7.822;2023-09-30T07:36:06;18.10;1.00
46416;DHT22;32620;51.704;7.822;2023-09-30T07:38:32;18.20;1.00
46416;DHT22;32620;51.704;7.822;2023-09-30T07:41:00;18.60;99.90
46416;DHT22;32620;51.704;7.822;2023-09-30T07:43:28;18.60;1.00
46416;DHT22;32620;51.704;7.822;2023-09-30T07:45:53;18.80;99.90
46416;DHT22;32620;51.704;7.822;2023-09-30T07:48:19;18.80;99.90
46416;DHT22;32620;51.704;7.822;2023-09-30T07:50:44;19.30;99.90
46416;DHT22;32620;51.704;7.822;2023-09-30T07:53:10;19.50;1.00
46416;DHT22;32620;51.704;7.822;2023-09-30T07:55:37;19.40;99.90
46416;DHT22;32620;51.704;7.822;2023-09-30T07:58:03;19.70;99.90
46416;DHT22;32620;51.704;7.822;2023-09-30T08:00:28;19.40;99.90
46416;DHT22;32620;51.704;7.822;2023-09-30T08:02:54;19.20;99.90
46416;DHT22;32620;51.704;7.822;2023-09-30T08:05:20;19.40;87.30
46416;DHT22;32620;51.704;7.822;2023-09-30T08:07:45;18.80;99.90
46416;DHT22;32620;51.704;7.822;2023-09-30T08:10:11;19.10;99.90
46416;DHT22;32620;51.704;7.822;2023-09-30T08:12:42;19.50;99.90
46416;DHT22;32620;51.704;7.822;2023-09-30T08:15:11;19.60;6.50
46416;DHT22;32620;51.704;7.822;2023-09-30T08:17:37;19.90;9.00
46416;DHT22;32620;51.704;7.822;2023-09-30T08:20:02;19.30;99.90
46416;DHT22;32620;51.704;7.822;2023-09-30T08:22:29;18.90;99.90
46416;DHT22;32620;51.704;7.822;2023-09-30T08:24:55;18.60;99.90
46416;DHT22;32620;51.704;7.822;2023-09-30T08:27:21;18.40;1.00
46416;DHT22;32620;51.704;7.822;2023-09-30T08:29:49;19.10;99.90
46416;DHT22;32620;51.704;7.822;2023-09-30T08:32:15;19.10;99.90
46416;DHT22;32620;51.704;7.822;2023-09-30T08:34:40;19.20;73.40
46416;DHT22;32620;51.704;7.822;2023-09-30T08:37:06;19.30;99.90
46416;DHT22;32620;51.704;7.822;2023-09-30T08:39:31;19.10;99.90
46416;DHT22;32620;51.704;7.822;2023-09-30T08:41:57;19.40;99.90
46416;DHT22;32620;51.704;7.822;2023-09-30T08:44:23;19.00;99.90
46416;DHT22;32620;51.704;7.822;2023-09-30T08:46:49;19.10;99.90
46416;DHT22;32620;51.704;7.822;2023-09-30T08:49:23;19.10;99.90
46416;DHT22;32620;51.704;7.822;2023-09-30T08:51:50;19.80;99.90
46416;DHT22;32620;51.704;7.822;2023-09-30T08:54:16;20.00;99.90
46416;DHT22;32620;51.704;7.822;2023-09-30T08:56:46;20.20;99.90
46416;DHT22;32620;51.704;7.822;2023-09-30T08:59:13;19.70;99.90
46416;DHT22;32620;51.704;7.822;2023-09-30T09:01:40;19.30;99.90
46416;DHT22;32620;51.704;7.822;2023-09-30T09:04:07;19.40;99.90
46416;DHT22;32620;51.704;7.822;2023-09-30T09:06:32;19.60;99.90
46416;DHT22;32620;51.704;7.822;2023-09-30T09:09:16;19.80;1.00
46416;DHT22;32620;51.704;7.822;2023-09-30T09:11:43;20.10;99.90
46416;DHT22;32620;51.704;7.822;2023-09-30T09:14:09;20.20;99.90
46416;DHT22;32620;51.704;7.822;2023-09-30T09:16:35;20.00;99.90
46416;DHT22;32620;51.704;7.822;2023-09-30T09:19:13;20.50;1.00
46416;DHT22;32620;51.704;7.822;2023-09-30T09:21:53;20.10;1.00
46416;DHT22;32620;51.704;7.822;2023-09-30T09:24:28;20.30;18.80
46416;DHT22;32620;51.704;7.822;2023-09-30T09:27:04;20.70;44.00
46416;DHT22;32620;51.704;7.822;2023-09-30T09:29:30;20.80;1.00
46416;DHT22;32620;51.704;7.822;2023-09-30T09:32:07;20.90;99.90
46416;DHT22;32620;51.704;7.822;2023-09-30T09:34:33;21.40;99.90
46416;DHT22;32620;51.704;7.822;2023-09-30T09:36:58;21.20;25.90
46416;DHT22;32620;51.704;7.822;2023-09-30T09:39:31;21.40;99.90
46416;DHT22;32620;51.704;7.822;2023-09-30T09:41:57;21.50;1.00
46416;DHT22;32620;51.704;7.822;2023-09-30T09:44:24;21.10;1.00
46416;DHT22;32620;51.704;7.822;2023-09-30T09:46:51;20.20;99.90
46416;DHT22;32620;51.704;7.822;2023-09-30T09:49:17;19.90;58.00
46416;DHT22;32620;51.704;7.822;2023-09-30T09:51:44;19.00;99.90
46416;DHT22;32620;51.704;7.822;2023-09-30T09:54:11;18.40;99.90
46416;DHT22;32620;51.704;7.822;2023-09-30T09:56:38;18.30;99.90
46416;DHT22;32620;51.704;7.822;2023-09-30T09:59:04;18.50;99.90
46416;DHT22;32620;51.704;7.822;2023-09-30T10:01:30;18.60;99.90
46416;DHT22;32620;51.704;7.822;2023-09-30T10:03:56;18.50;99.90
46416;DHT22;32620;51.704;7.822;2023-09-30T10:06:22;18.50;99.90
46416;DHT22;32620;51.704;7.822;2023-09-30T10:08:49;18.60;99.90
46416;DHT22;32620;51.704;7.822;2023-09-30T10:11:18;19.40;1.00
46416;DHT22;32620;51.704;7.822;2023-09-30T10:13:54;19.40;99.90
46416;DHT22;32620;51.704;7.822;2023-09-30T10:22:20;19.20;1.00
46416;DHT22;32620;51.704;7.822;2023-09-30T10:24:49;18.90;99.90
46416;DHT22;32620;51.704;7.822;2023-09-30T10:41:10;20.80;99.90
46416;DHT22;32620;51.704;7.822;2023-09-30T10:43:39;20.50;99.90
46416;DHT22;32620;51.704;7.822;2023-09-30T10:52:00;22.30;1.00
46416;DHT22;32620;51.704;7.822;2023-09-30T10:54:29;22.80;1.00
46416;DHT22;32620;51.704;7.822;2023-09-30T10:56:55;23.00;23.80
46416;DHT22;32620;51.704;7.822;2023-09-30T10:59:22;22.40;97.00
46416;DHT22;32620;51.704;7.822;2023-09-30T11:01:50;21.60;21.60
46416;DHT22;32620;51.704;7.822;2023-09-30T11:04:15;21.50;99.90
46416;DHT22;32620;51.704;7.822;2023-09-30T11:06:42;22.20;99.90
46416;DHT22;32620;51.704;7.822;2023-09-30T11:09:08;22.00;1.00
46416;DHT22;32620;51.704;7.822;2023-09-30T11:11:40;21.10;99.90
46416;DHT22;32620;51.704;7.822;2023-09-30T11:14:29;20.50;99.90
46416;DHT22;32620;51.704;7.822;2023-09-30T11:16:59;19.80;1.00
46416;DHT22;32620;51.704;7.822;2023-09-30T11:19:27;19.60;1.00
46416;DHT22;32620;51.704;7.822;2023-09-30T11:21:54;19.30;99.90
46416;DHT22;32620;51.704;7.822;2023-09-30T11:24:21;19.60;1.00
46416;DHT22;32620;51.704;7.822;2023-09-30T11:26:47;19.90;1.00
46416;DHT22;32620;51.704;7.822;2023-09-30T11:29:17;19.90;21.30
46416;DHT22;32620;51.704;7.822;2023-09-30T11:31:45;19.40;99.90
46416;DHT22;32620;51.704;7.822;2023-09-30T11:34:12;19.60;99.90
46416;DHT22;32620;51.704;7.822;2023-09-30T11:36:40;19.60;1.00
46416;DHT22;32620;51.704;7.822;2023-09-30T11:39:08;19.90;99.90
46416;DHT22;32620;51.704;7.822;2023-09-30T11:41:37;19.90;99.90
46416;DHT22;32620;51.704;7.822;2023-09-30T11:44:07;20.10;99.90
46416;DHT22;32620;51.704;7.822;2023-09-30T11:46:50;20.10;99.90
46416;DHT22;32620;51.704;7.822;2023-09-30T11:49:35;20.40;99.90
46416;DHT22;32620;51.704;7.822;2023-09-30T11:52:03;20.20;1.00
46416;DHT22;32620;51.704;7.822;2023-09-30T11:54:30;20.00;99.90
46416;DHT22;32620;51.704;7.822;2023-09-30T11:56:57;19.90;1.00
46416;DHT22;32620;51.704;7.822;2023-09-30T11:59:24;20.30;99.90
46416;DHT22;32620;51.704;7.822;2023-09-30T12:01:49;20.90;99.90
46416;DHT22;32620;51.704;7.822;2023-09-30T12:04:17;21.20;99.90
46416;DHT22;32620;51.704;7.822;2023-09-30T12:06:45;21.10;99.90
46416;DHT22;32620;51.704;7.822;2023-09-30T12:09:12;21.20;1.00
46416;DHT22;32620;51.704;7.822;2023-09-30T12:11:40;20.40;90.70
46416;DHT22;32620;51.704;7.822;2023-09-30T12:14:10;20.50;99.90
46416;DHT22;32620;51.704;7.822;2023-09-30T12:16:36;20.80;99.90
46416;DHT22;32620;51.704;7.822;2023-09-30T12:19:02;20.60;1.00
46416;DHT22;32620;51.704;7.822;2023-09-30T12:21:28;20.60;99.90
46416;DHT22;32620;51.704;7.822;2023-09-30T12:23:54;20.20;1.00
46416;DHT22;32620;51.704;7.822;2023-09-30T12:26:19;19.90;99.90
46416;DHT22;32620;51.704;7.822;2023-09-30T12:28:45;19.60;99.90
46416;DHT22;32620;51.704;7.822;2023-09-30T12:31:12;19.80;99.90
46416;DHT22;32620;51.704;7.822;2023-09-30T12:33:39;20.30;1.00
46416;DHT22;32620;51.704;7.822;2023-09-30T12:36:04;20.30;1.00
46416;DHT22;32620;51.704;7.822;2023-09-30T12:38:30;20.70;1.00
46416;DHT22;32620;51.704;7.822;2023-09-30T12:40:56;21.00;99.90
46416;DHT22;32620;51.704;7.822;2023-09-30T12:43:21;20.70;99.90
46416;DHT22;32620;51.704;7.822;2023-09-30T12:45:47;21.00;99.90
46416;DHT22;32620;51.704;7.822;2023-09-30T12:48:14;20.90;1.00
46416;DHT22;32620;51.704;7.822;2023-09-30T12:50:40;21.00;99.90
46416;DHT22;32620;51.704;7.822;2023-09-30T12:53:06;21.00;99.90
46416;DHT22;32620;51.704;7.822;2023-09-30T12:55:32;21.10;99.90
46416;DHT22;32620;51.704;7.822;2023-09-30T12:57:57;21.00;1.00
46416;DHT22;32620;51.704;7.822;2023-09-30T13:00:25;20.50;99.90
46416;DHT22;32620;51.704;7.822;2023-09-30T13:02:51;20.60;99.90
46416;DHT22;32620;51.704;7.822;2023-09-30T13:05:17;20.80;1.00
46416;DHT22;32620;51.704;7.822;2023-09-30T13:07:43;20.60;99.90
46416;DHT22;32620;51.704;7.822;2023-09-30T13:10:09;20.30;67.30
46416;DHT22;32620;51.704;7.822;2023-09-30T13:12:35;20.30;87.10
46416;DHT22;32620;51.704;7.822;2023-09-30T13:15:00;20.20;78.70
46416;DHT22;32620;51.704;7.822;2023-09-30T13:17:26;20.20;99.90
46416;DHT22;32620;51.704;7.822;2023-09-30T13:19:52;20.30;1.00
46416;DHT22;32620;51.704;7.822;2023-09-30T13:22:18;20.30;16.80
46416;DHT22;32620;51.704;7.822;2023-09-30T13:24:44;20.40;1.00
46416;DHT22;32620;51.704;7.822;2023-09-30T13:27:09;20.40;99.90
46416;DHT22;32620;51.704;7.822;2023-09-30T13:29:35;20.10;99.90
46416;DHT22;32620;51.704;7.822;2023-09-30T13:32:01;20.10;99.90
46416;DHT22;32620;51.704;7.822;2023-09-30T13:34:27;20.10;99.90
46416;DHT22;32620;51.704;7.822;2023-09-30T13:36:54;20.40;99.90
46416;DHT22;32620;51.704;7.822;2023-09-30T13:39:19;20.70;1.00
46416;DHT22;32620;51.704;7.822;2023-09-30T13:41:46;20.60;99.90
46416;DHT22;32620;51.704;7.822;2023-09-30T13:44:13;20.60;99.90
46416;DHT22;32620;51.704;7.822;2023-09-30T13:46:39;20.60;99.90
46416;DHT22;32620;51.704;7.822;2023-09-30T13:49:05;20.50;99.90
46416;DHT22;32620;51.704;7.822;2023-09-30T13:51:30;20.40;99.90
46416;DHT22;32620;51.704;7.822;2023-09-30T13:53:56;20.30;97.40
46416;DHT22;32620;51.704;7.822;2023-09-30T13:56:21;20.20;99.90
46416;DHT22;32620;51.704;7.822;2023-09-30T13:58:47;20.50;99.90
46416;DHT22;32620;51.704;7.822;2023-09-30T14:01:14;20.70;1.00
46416;DHT22;32620;51.704;7.822;2023-09-30T14:03:40;20.40;99.90
46416;DHT22;32620;51.704;7.822;2023-09-30T14:06:13;20.30;99.90
46416;DHT22;32620;51.704;7.822;2023-09-30T14:08:40;20.30;99.90
46416;DHT22;32620;51.704;7.822;2023-09-30T14:11:08;20.30;9.20
46416;DHT22;32620;51.704;7.822;2023-09-30T14:13:34;20.00;99.90
46416;DHT22;32620;51.704;7.822;2023-09-30T14:15:59;20.00;99.90
46416;DHT22;32620;51.704;7.822;2023-09-30T14:18:25;19.90;99.90
46416;DHT22;32620;51.704;7.822;2023-09-30T14:20:50;19.80;99.90
46416;DHT22;32620;51.704;7.822;2023-09-30T14:23:16;20.00;1.00
46416;DHT22;32620;51.704;7.822;2023-09-30T14:25:41;20.20;1.00
46416;DHT22;32620;51.704;7.822;2023-09-30T14:28:07;20.20;1.00
46416;DHT22;32620;51.704;7.822;2023-09-30T14:30:32;20.00;99.90
46416;DHT22;32620;51.704;7.822;2023-09-30T14:32:58;20.00;99.90
46416;DHT22;32620;51.704;7.822;2023-09-30T14:35:24;20.00;99.90
46416;DHT22;32620;51.704;7.822;2023-09-30T14:37:49;20.00;99.90
46416;DHT22;32620;51.704;7.822;2023-09-30T14:40:15;20.00;99.90
46416;DHT22;32620;51.704;7.822;2023-09-30T14:42:41;19.90;99.90
46416;DHT22;32620;51.704;7.822;2023-09-30T14:45:08;19.70;1.00
46416;DHT22;32620;51.704;7.822;2023-09-30T14:47:33;19.70;99.90
46416;DHT22;32620;51.704;7.822;2023-09-30T14:49:59;19.70;99.90
46416;DHT22;32620;51.704;7.822;2023-09-30T14:52:27;19.70;92.10
46416;DHT22;32620;51.704;7.822;2023-09-30T14:54:52;19.60;1.00
46416;DHT22;32620;51.704;7.822;2023-09-30T14:57:18;19.70;76.00
46416;DHT22;32620;51.704;7.822;2023-09-30T14:59:46;19.60;1.00
46416;DHT22;32620;51.704;7.822;2023-09-30T15:02:11;19.60;1.00
46416;DHT22;32620;51.704;7.822;2023-09-30T15:04:37;19.70;1.00
46416;DHT22;32620;51.704;7.822;2023-09-30T15:07:03;19.60;1.00
46416;DHT22;32620;51.704;7.822;2023-09-30T15:09:29;19.70;1.00
46416;DHT22;32620;51.704;7.822;2023-09-30T15:11:54;19.90;99.90
46416;DHT22;32620;51.704;7.822;2023-09-30T15:14:20;19.90;1.00
46416;DHT22;32620;51.704;7.822;2023-09-30T15:16:45;19.80;1.00
46416;DHT22;32620;51.704;7.822;2023-09-30T15:19:11;19.50;66.40
46416;DHT22;32620;51.704;7.822;2023-09-30T15:21:37;19.40;99.90
46416;DHT22;32620;51.704;7.822;2023-09-30T15:24:03;19.40;99.90
46416;DHT22;32620;51.704;7.822;2023-09-30T15:26:29;19.50;99.90
46416;DHT22;32620;51.704;7.822;2023-09-30T15:28:56;19.50;99.90
46416;DHT22;32620;51.704;7.822;2023-09-30T15:31:27;19.30;99.90
46416;DHT22;32620;51.704;7.822;2023-09-30T15:33:53;19.20;99.90
46416;DHT22;32620;51.704;7.822;2023-09-30T15:36:18;19.10;99.90
46416;DHT22;32620;51.704;7.822;2023-09-30T15:38:45;19.10;99.90
46416;DHT22;32620;51.704;7.822;2023-09-30T15:41:12;19.00;99.90
46416;DHT22;32620;51.704;7.822;2023-09-30T15:43:38;18.80;99.90
46416;DHT22;32620;51.704;7.822;2023-09-30T15:46:04;18.90;99.90
46416;DHT22;32620;51.704;7.822;2023-09-30T15:48:30;18.90;99.90
46416;DHT22;32620;51.704;7.822;2023-09-30T15:50:56;18.80;1.00
46416;DHT22;32620;51.704;7.822;2023-09-30T15:53:21;18.80;1.00